createdAt,value
2018-04-15T00:00:13.121Z,14.83
2018-04-15T00:02:40.664Z,14.79
2018-04-15T00:05:08.210Z,14.76
2018-04-15T00:07:35.765Z,14.71
2018-04-15T00:10:03.413Z,14.68
2018-04-15T00:12:30.959Z,14.66
2018-04-15T00:14:58.507Z,14.63
2018-04-15T00:17:26.083Z,14.63
2018-04-15T00:19:53.652Z,14.61
2018-04-15T00:22:21.200Z,14.63
2018-04-15T00:24:49.117Z,14.64
2018-04-15T00:27:16.682Z,14.59
2018-04-15T00:29:44.239Z,14.49
2018-04-15T00:32:11.836Z,14.52
2018-04-15T00:34:39.388Z,14.52
2018-04-15T00:37:06.938Z,14.45
2018-04-15T00:39:34.523Z,14.38
2018-04-15T00:42:02.115Z,14.39
2018-04-15T00:44:29.662Z,14.34
2018-04-15T00:46:57.751Z,14.32
2018-04-15T00:49:25.300Z,14.35
2018-04-15T00:51:52.850Z,14.34
2018-04-15T00:54:20.448Z,14.33
2018-04-15T00:56:47.986Z,14.24
2018-04-15T00:59:15.528Z,14.20
2018-04-15T01:01:43.253Z,14.14
2018-04-15T01:04:10.790Z,14.06
2018-04-15T01:06:38.337Z,14.07
2018-04-15T01:09:07.011Z,14.11
2018-04-15T01:11:34.564Z,14.05
2018-04-15T01:14:02.127Z,14.05
2018-04-15T01:16:29.720Z,14.02
2018-04-15T01:18:57.256Z,14.02
2018-04-15T01:21:24.804Z,14.03
2018-04-15T01:23:52.480Z,14.05
2018-04-15T01:26:20.056Z,14.06
2018-04-15T01:28:47.603Z,14.06
2018-04-15T01:31:15.172Z,13.98
2018-04-15T01:33:42.712Z,14.03
2018-04-15T01:36:10.261Z,13.98
2018-04-15T01:38:37.982Z,13.97
2018-04-15T01:41:05.518Z,14.03
2018-04-15T01:43:33.062Z,13.99
2018-04-15T01:46:00.957Z,13.96
2018-04-15T01:48:28.517Z,13.94
2018-04-15T01:50:56.078Z,13.91
2018-04-15T01:53:23.666Z,13.87
2018-04-15T01:55:51.222Z,13.86
2018-04-15T01:58:18.774Z,13.67
2018-04-15T02:00:46.368Z,13.65
2018-04-15T02:03:13.931Z,13.63
2018-04-15T02:05:41.475Z,13.52
2018-04-15T02:08:09.058Z,13.49
2018-04-15T02:10:36.599Z,13.47
2018-04-15T02:13:04.160Z,13.45
2018-04-15T02:15:31.730Z,13.39
2018-04-15T02:17:59.276Z,13.36
2018-04-15T02:20:26.811Z,13.36
2018-04-15T02:22:54.698Z,13.34
2018-04-15T02:25:22.253Z,13.29
2018-04-15T02:27:49.808Z,13.30
2018-04-15T02:30:17.379Z,13.28
2018-04-15T02:32:44.928Z,13.32
2018-04-15T02:35:12.475Z,13.38
2018-04-15T02:37:40.067Z,13.37
2018-04-15T02:40:07.619Z,13.40
2018-04-15T02:42:35.175Z,13.46
2018-04-15T02:45:02.776Z,13.58
2018-04-15T02:47:30.340Z,13.49
2018-04-15T02:49:57.893Z,13.48
2018-04-15T02:52:25.564Z,13.45
2018-04-15T02:54:53.117Z,13.48
2018-04-15T02:57:20.656Z,13.43
2018-04-15T02:59:48.263Z,13.48
2018-04-15T03:02:15.805Z,13.42
2018-04-15T03:04:43.340Z,13.48
2018-04-15T03:07:10.913Z,13.49
2018-04-15T03:09:38.444Z,13.51
2018-04-15T03:12:05.992Z,13.51
2018-04-15T03:14:33.560Z,13.44
2018-04-15T03:17:01.103Z,13.43
2018-04-15T03:19:28.652Z,13.45
2018-04-15T03:21:56.221Z,13.44
2018-04-15T03:24:23.772Z,13.45
2018-04-15T03:26:51.321Z,13.43
2018-04-15T03:29:18.993Z,13.39
2018-04-15T03:31:46.539Z,13.43
2018-04-15T03:34:14.074Z,13.40
2018-04-15T03:36:41.643Z,13.42
2018-04-15T03:39:09.191Z,13.36
2018-04-15T03:41:36.741Z,13.36
2018-04-15T03:44:04.309Z,13.36
2018-04-15T03:46:31.851Z,13.32
2018-04-15T03:48:59.398Z,13.37
2018-04-15T03:51:26.963Z,13.24
2018-04-15T03:53:54.512Z,13.27
2018-04-15T03:56:22.052Z,13.22
2018-04-15T03:58:49.934Z,13.23
2018-04-15T04:01:17.505Z,13.38
2018-04-15T04:03:45.052Z,13.48
2018-04-15T04:06:12.777Z,13.56
2018-04-15T04:08:40.316Z,13.62
2018-04-15T04:11:07.855Z,13.64
2018-04-15T04:13:35.455Z,13.66
2018-04-15T04:16:03.031Z,13.70
2018-04-15T04:18:42.252Z,13.79
2018-04-15T04:21:21.542Z,13.89
2018-04-15T04:24:00.790Z,13.85
2018-04-15T04:26:28.336Z,14.09
2018-04-15T04:28:55.914Z,14.21
2018-04-15T04:31:23.498Z,14.52
2018-04-15T04:33:51.037Z,14.90
2018-04-15T04:36:18.571Z,15.44
2018-04-15T04:38:46.178Z,16.05
2018-04-15T04:41:13.728Z,16.63
2018-04-15T04:43:41.275Z,17.16
2018-04-15T04:46:08.836Z,17.42
2018-04-15T04:48:36.381Z,17.56
2018-04-15T04:51:03.934Z,17.35
2018-04-15T04:53:31.657Z,17.81
2018-04-15T04:55:59.201Z,18.12
2018-04-15T04:58:26.760Z,18.48
2018-04-15T05:00:54.476Z,18.37
2018-04-15T05:03:22.046Z,18.14
2018-04-15T05:05:49.629Z,17.92
2018-04-15T05:08:17.300Z,17.87
2018-04-15T05:10:44.840Z,18.01
2018-04-15T05:13:12.396Z,18.26
2018-04-15T05:15:40.019Z,18.96
2018-04-15T05:18:07.544Z,19.77
2018-04-15T05:20:35.082Z,20.22
2018-04-15T05:23:02.821Z,20.36
2018-04-15T05:25:30.376Z,19.87
2018-04-15T05:27:57.992Z,19.80
2018-04-15T05:30:25.737Z,19.93
2018-04-15T05:32:53.285Z,20.11
2018-04-15T05:35:20.836Z,20.39
2018-04-15T05:37:48.529Z,20.13
2018-04-15T05:40:16.063Z,20.36
2018-04-15T05:42:43.606Z,20.39
2018-04-15T05:45:11.185Z,20.57
2018-04-15T05:47:38.756Z,20.51
2018-04-15T05:50:06.332Z,20.78
2018-04-15T05:52:33.904Z,20.79
2018-04-15T05:55:01.449Z,20.21
2018-04-15T05:57:28.998Z,19.98
2018-04-15T05:59:56.582Z,19.96
2018-04-15T06:02:24.120Z,19.57
2018-04-15T06:04:51.662Z,19.22
2018-04-15T06:07:19.524Z,19.05
2018-04-15T06:09:47.065Z,19.07
2018-04-15T06:12:14.635Z,19.37
2018-04-15T06:14:42.237Z,19.35
2018-04-15T06:17:09.787Z,19.59
2018-04-15T06:19:37.356Z,19.59
2018-04-15T06:22:04.961Z,19.74
2018-04-15T06:24:32.524Z,19.78
2018-04-15T06:27:00.082Z,19.81
2018-04-15T06:29:27.775Z,19.93
2018-04-15T06:31:56.204Z,19.66
2018-04-15T06:34:23.756Z,19.78
2018-04-15T06:36:51.536Z,20.03
2018-04-15T06:39:19.073Z,20.36
2018-04-15T06:41:46.629Z,20.54
2018-04-15T06:44:14.222Z,20.38
2018-04-15T06:46:41.776Z,20.39
2018-04-15T06:49:09.324Z,20.79
2018-04-15T06:51:37.904Z,20.82
2018-04-15T06:54:05.459Z,20.96
2018-04-15T06:56:33.037Z,20.36
2018-04-15T06:59:00.633Z,20.67
2018-04-15T07:01:28.227Z,20.65
2018-04-15T07:03:55.766Z,20.26
2018-04-15T07:06:23.441Z,20.35
2018-04-15T07:08:50.981Z,20.58
2018-04-15T07:11:18.556Z,20.53
2018-04-15T07:13:46.287Z,20.50
2018-04-15T07:16:13.823Z,20.03
2018-04-15T07:18:41.392Z,19.94
2018-04-15T07:21:09.127Z,20.25
2018-04-15T07:23:36.673Z,20.62
2018-04-15T07:26:04.244Z,20.70
2018-04-15T07:28:31.827Z,20.62
2018-04-15T07:30:59.368Z,20.27
2018-04-15T07:33:27.145Z,20.52
2018-04-15T07:35:54.908Z,20.26
2018-04-15T07:38:22.481Z,20.36
2018-04-15T07:40:50.048Z,20.52
2018-04-15T07:43:17.642Z,20.40
2018-04-15T07:45:45.216Z,20.27
2018-04-15T07:48:12.784Z,19.93
2018-04-15T07:50:40.372Z,20.13
2018-04-15T07:53:07.921Z,20.56
2018-04-15T07:55:35.475Z,20.81
2018-04-15T07:58:03.196Z,21.35
2018-04-15T08:00:30.737Z,21.96
2018-04-15T08:02:58.301Z,22.02
2018-04-15T08:05:25.857Z,22.31
2018-04-15T08:07:53.403Z,21.81
2018-04-15T08:10:21.000Z,22.01
2018-04-15T08:12:48.545Z,21.85
2018-04-15T08:15:16.087Z,21.59
2018-04-15T08:17:43.830Z,21.52
2018-04-15T08:20:11.390Z,21.53
2018-04-15T08:22:38.932Z,21.82
2018-04-15T08:25:06.526Z,21.92
2018-04-15T08:27:34.064Z,22.23
2018-04-15T08:30:01.629Z,22.35
2018-04-15T08:32:29.212Z,22.57
2018-04-15T08:34:56.762Z,22.41
2018-04-15T08:37:24.304Z,22.44
2018-04-15T08:39:51.890Z,22.54
2018-04-15T08:42:19.440Z,22.59
2018-04-15T08:44:46.979Z,22.48
2018-04-15T08:47:14.578Z,22.40
2018-04-15T08:49:42.122Z,21.88
2018-04-15T08:52:09.679Z,21.82
2018-04-15T08:54:37.253Z,21.26
2018-04-15T08:57:04.839Z,21.85
2018-04-15T08:59:32.389Z,21.64
2018-04-15T09:02:00.157Z,21.28
2018-04-15T09:04:27.696Z,21.00
2018-04-15T09:06:55.246Z,20.88
2018-04-15T09:09:22.832Z,20.80
2018-04-15T09:11:50.423Z,20.49
2018-04-15T09:14:17.960Z,20.53
2018-04-15T09:16:45.747Z,20.36
2018-04-15T09:19:13.302Z,20.46
2018-04-15T09:21:40.850Z,20.61
2018-04-15T09:24:08.624Z,20.65
2018-04-15T09:26:36.186Z,20.26
2018-04-15T09:29:03.741Z,20.16
2018-04-15T09:31:31.575Z,20.06
2018-04-15T09:33:59.122Z,20.02
2018-04-15T09:36:26.686Z,20.24
2018-04-15T09:38:54.423Z,20.32
2018-04-15T09:41:21.971Z,20.00
2018-04-15T09:43:49.507Z,20.02
2018-04-15T09:46:17.136Z,19.94
2018-04-15T09:48:44.680Z,19.94
2018-04-15T09:51:12.233Z,19.78
2018-04-15T09:53:39.817Z,19.76
2018-04-15T09:56:07.358Z,19.91
2018-04-15T09:58:34.912Z,19.73
2018-04-15T10:01:03.325Z,19.54
2018-04-15T10:03:30.896Z,19.42
2018-04-15T10:05:58.468Z,19.28
2018-04-15T10:08:26.057Z,19.31
2018-04-15T10:10:53.648Z,19.38
2018-04-15T10:13:21.180Z,19.41
2018-04-15T10:15:48.769Z,19.38
2018-04-15T10:18:16.312Z,19.43
2018-04-15T10:20:43.860Z,19.50
2018-04-15T10:23:11.594Z,19.43
2018-04-15T10:25:39.148Z,19.55
2018-04-15T10:28:06.696Z,19.67
2018-04-15T10:30:34.408Z,19.57
2018-04-15T10:33:01.969Z,19.60
2018-04-15T10:35:29.511Z,19.83
2018-04-15T10:37:57.415Z,19.73
2018-04-15T10:40:24.965Z,19.87
2018-04-15T10:42:52.515Z,19.93
2018-04-15T10:45:20.400Z,20.10
2018-04-15T10:47:47.966Z,20.40
2018-04-15T10:50:15.514Z,20.54
2018-04-15T10:52:43.095Z,20.60
2018-04-15T10:55:10.635Z,20.74
2018-04-15T10:57:38.185Z,20.93
2018-04-15T11:00:05.904Z,21.15
2018-04-15T11:02:33.457Z,21.23
2018-04-15T11:05:01.026Z,21.21
2018-04-15T11:07:28.887Z,20.80
2018-04-15T11:09:56.447Z,20.71
2018-04-15T11:12:24.004Z,20.58
2018-04-15T11:14:51.610Z,20.60
2018-04-15T11:17:19.188Z,20.38
2018-04-15T11:19:46.751Z,20.43
2018-04-15T11:22:14.361Z,20.34
2018-04-15T11:24:41.907Z,20.45
2018-04-15T11:27:09.455Z,20.21
2018-04-15T11:29:37.034Z,20.22
2018-04-15T11:32:04.593Z,20.22
2018-04-15T11:34:32.154Z,20.29
2018-04-15T11:36:59.891Z,20.11
2018-04-15T11:39:27.439Z,20.17
2018-04-15T11:41:54.995Z,20.20
2018-04-15T11:44:22.748Z,20.34
2018-04-15T11:46:50.298Z,20.33
2018-04-15T11:49:17.865Z,20.29
2018-04-15T11:51:45.673Z,20.00
2018-04-15T11:54:13.234Z,19.99
2018-04-15T11:56:40.792Z,19.92
2018-04-15T11:59:08.378Z,19.93
2018-04-15T12:01:35.941Z,19.87
2018-04-15T12:04:03.518Z,19.68
2018-04-15T12:06:31.097Z,19.71
2018-04-15T12:08:58.654Z,19.67
2018-04-15T12:11:26.524Z,19.64
2018-04-15T12:13:54.084Z,19.59
2018-04-15T12:16:21.656Z,19.63
2018-04-15T12:18:49.392Z,19.57
2018-04-15T12:21:16.950Z,19.58
2018-04-15T12:23:44.504Z,19.59
2018-04-15T12:26:12.384Z,19.76
2018-04-15T12:28:39.938Z,19.71
2018-04-15T12:31:07.491Z,19.77
2018-04-15T12:33:35.067Z,19.70
2018-04-15T12:36:02.641Z,19.70
2018-04-15T12:38:30.196Z,19.72
2018-04-15T12:40:57.857Z,19.67
2018-04-15T12:43:25.407Z,19.63
2018-04-15T12:45:52.957Z,19.50
2018-04-15T12:48:20.539Z,19.46
2018-04-15T12:50:48.085Z,19.59
2018-04-15T12:53:15.638Z,19.55
2018-04-15T12:55:43.447Z,19.40
2018-04-15T12:58:11.012Z,19.22
2018-04-15T13:00:38.592Z,19.22
2018-04-15T13:03:06.202Z,19.12
2018-04-15T13:05:33.749Z,19.15
2018-04-15T13:08:01.292Z,19.33
2018-04-15T13:10:28.852Z,19.39
2018-04-15T13:12:56.421Z,19.43
2018-04-15T13:15:24.012Z,19.66
2018-04-15T13:17:51.622Z,19.79
2018-04-15T13:20:19.172Z,19.90
2018-04-15T13:22:46.731Z,20.15
2018-04-15T13:25:14.420Z,20.17
2018-04-15T13:27:41.964Z,20.16
2018-04-15T13:30:09.512Z,20.27
2018-04-15T13:32:37.114Z,20.08
2018-04-15T13:35:04.699Z,20.17
2018-04-15T13:37:32.251Z,20.22
2018-04-15T13:40:00.040Z,20.11
2018-04-15T13:42:27.614Z,20.09
2018-04-15T13:44:55.174Z,20.08
2018-04-15T13:47:22.915Z,19.97
2018-04-15T13:49:50.499Z,19.85
2018-04-15T13:52:18.057Z,19.95
2018-04-15T13:54:45.766Z,19.83
2018-04-15T13:57:13.338Z,19.68
2018-04-15T13:59:40.896Z,19.53
2018-04-15T14:02:08.608Z,19.37
2018-04-15T14:04:36.164Z,19.37
2018-04-15T14:07:03.730Z,19.33
2018-04-15T14:09:31.621Z,19.30
2018-04-15T14:11:59.159Z,19.18
2018-04-15T14:14:26.737Z,19.15
2018-04-15T14:16:54.337Z,19.17
2018-04-15T14:19:21.878Z,19.00
2018-04-15T14:21:49.470Z,18.92
2018-04-15T14:24:17.081Z,18.82
2018-04-15T14:26:44.636Z,18.82
2018-04-15T14:29:12.196Z,18.73
2018-04-15T14:31:40.077Z,18.70
2018-04-15T14:34:07.665Z,18.60
2018-04-15T14:36:35.227Z,18.64
2018-04-15T14:39:02.848Z,18.65
2018-04-15T14:41:30.482Z,18.63
2018-04-15T14:43:58.048Z,18.75
2018-04-15T14:46:25.780Z,18.74
2018-04-15T14:48:53.368Z,18.75
2018-04-15T14:51:20.935Z,18.73
2018-04-15T14:53:48.667Z,18.83
2018-04-15T14:56:16.279Z,18.81
2018-04-15T14:58:43.844Z,18.93
2018-04-15T15:01:11.458Z,19.02
2018-04-15T15:03:39.013Z,19.12
2018-04-15T15:06:06.566Z,19.11
2018-04-15T15:08:34.221Z,19.08
2018-04-15T15:11:01.777Z,19.01
2018-04-15T15:13:29.420Z,19.01
2018-04-15T15:15:57.257Z,18.98
2018-04-15T15:18:24.830Z,18.96
2018-04-15T15:20:52.379Z,18.89
2018-04-15T15:23:20.134Z,18.82
2018-04-15T15:25:47.713Z,18.64
2018-04-15T15:28:15.365Z,18.51
2018-04-15T15:30:43.121Z,18.53
2018-04-15T15:33:10.679Z,18.40
2018-04-15T15:35:38.233Z,18.37
2018-04-15T15:38:05.985Z,18.21
2018-04-15T15:40:33.560Z,18.08
2018-04-15T15:43:01.118Z,17.97
2018-04-15T15:45:28.853Z,17.75
2018-04-15T15:47:56.437Z,17.55
2018-04-15T15:50:24.015Z,17.51
2018-04-15T15:52:51.776Z,17.49
2018-04-15T15:55:19.328Z,17.41
2018-04-15T15:57:46.883Z,17.24
2018-04-15T16:00:14.505Z,17.19
2018-04-15T16:02:42.030Z,17.12
2018-04-15T16:05:09.596Z,17.00
2018-04-15T16:07:37.488Z,16.84
2018-04-15T16:10:05.068Z,16.83
2018-04-15T16:12:32.649Z,16.71
2018-04-15T16:15:00.226Z,16.71
2018-04-15T16:17:27.791Z,16.66
2018-04-15T16:19:55.369Z,16.50
2018-04-15T16:22:22.977Z,16.34
2018-04-15T16:24:50.625Z,16.30
2018-04-15T16:27:18.199Z,16.22
2018-04-15T16:29:45.800Z,16.18
2018-04-15T16:32:13.361Z,16.19
2018-04-15T16:34:40.920Z,16.01
2018-04-15T16:37:08.525Z,16.06
2018-04-15T16:39:36.121Z,16.06
2018-04-15T16:42:03.731Z,16.04
2018-04-15T16:44:31.529Z,15.98
2018-04-15T16:46:59.169Z,15.93
2018-04-15T16:49:26.760Z,15.99
2018-04-15T16:51:54.406Z,16.02
2018-04-15T16:54:22.047Z,16.05
2018-04-15T16:56:49.636Z,16.01
2018-04-15T16:59:17.284Z,15.97
2018-04-15T17:01:44.869Z,15.99
2018-04-15T17:04:12.712Z,15.93
2018-04-15T17:06:40.532Z,15.90
2018-04-15T17:09:08.341Z,15.83
2018-04-15T17:11:36.217Z,15.78
2018-04-15T17:14:03.839Z,15.83
2018-04-15T17:16:31.435Z,15.79
2018-04-15T17:18:59.163Z,15.71
2018-04-15T17:21:26.854Z,15.73
2018-04-15T17:23:54.580Z,15.69
2018-04-15T17:26:22.238Z,15.69
2018-04-15T17:28:49.825Z,15.69
2018-04-15T17:31:17.535Z,15.66
2018-04-15T17:33:45.159Z,15.74
2018-04-15T17:36:12.770Z,15.79
2018-04-15T17:38:40.555Z,15.77
2018-04-15T17:41:08.174Z,15.76
2018-04-15T17:43:35.767Z,15.76
2018-04-15T17:46:03.457Z,15.76
2018-04-15T17:48:31.298Z,15.78
2018-04-15T17:50:58.893Z,15.71
2018-04-15T17:53:26.635Z,15.73
2018-04-15T17:55:54.263Z,15.73
2018-04-15T17:58:21.976Z,15.72
2018-04-15T18:00:49.721Z,15.68
2018-04-15T18:03:17.403Z,15.67
2018-04-15T18:05:45.266Z,15.59
2018-04-15T18:08:13.029Z,15.59
2018-04-15T18:10:40.755Z,15.57
2018-04-15T18:13:08.374Z,15.59
2018-04-15T18:15:36.023Z,15.58
2018-04-15T18:18:03.577Z,15.49
2018-04-15T18:20:31.388Z,15.46
2018-04-15T18:22:59.282Z,15.48
2018-04-15T18:25:26.897Z,15.54
2018-04-15T18:27:54.724Z,15.60
2018-04-15T18:30:22.405Z,15.60
2018-04-15T18:32:50.097Z,15.53
2018-04-15T18:35:17.669Z,15.58
2018-04-15T18:37:45.514Z,15.63
2018-04-15T18:40:13.126Z,15.71
2018-04-15T18:42:40.728Z,15.68
2018-04-15T18:45:08.680Z,15.69
2018-04-15T18:47:36.379Z,15.66
2018-04-15T18:50:04.167Z,15.60
2018-04-15T18:52:32.096Z,15.56
2018-04-15T18:54:59.726Z,15.49
2018-04-15T18:57:27.528Z,15.49
2018-04-15T18:59:55.285Z,15.46
2018-04-15T19:02:22.880Z,15.41
2018-04-15T19:04:50.455Z,15.39
2018-04-15T19:07:18.145Z,15.36
2018-04-15T19:09:45.755Z,15.32
2018-04-15T19:12:13.362Z,15.28
2018-04-15T19:14:40.965Z,15.30
2018-04-15T19:17:08.572Z,15.28
2018-04-15T19:19:36.205Z,15.26
2018-04-15T19:22:03.860Z,15.26
2018-04-15T19:24:31.448Z,15.28
2018-04-15T19:26:59.025Z,15.40
2018-04-15T19:29:27.032Z,15.47
2018-04-15T19:31:54.714Z,15.51
2018-04-15T19:34:22.388Z,15.53
2018-04-15T19:36:50.180Z,15.52
2018-04-15T19:39:17.791Z,15.56
2018-04-15T19:41:45.391Z,15.48
2018-04-15T19:44:13.154Z,15.50
2018-04-15T19:46:40.992Z,15.50
2018-04-15T19:49:08.604Z,15.50
2018-04-15T19:51:36.388Z,15.48
2018-04-15T19:54:03.987Z,15.46
2018-04-15T19:56:31.566Z,15.44
2018-04-15T19:58:59.185Z,15.50
2018-04-15T20:01:26.756Z,15.54
2018-04-15T20:03:54.328Z,15.61
2018-04-15T20:06:21.953Z,15.68
2018-04-15T20:08:49.517Z,15.58
2018-04-15T20:11:17.147Z,15.64
2018-04-15T20:13:44.820Z,15.67
2018-04-15T20:16:12.413Z,15.74
2018-04-15T20:18:40.005Z,15.75
2018-04-15T20:21:07.717Z,15.78
2018-04-15T20:23:35.295Z,15.66
2018-04-15T20:26:02.860Z,15.73
2018-04-15T20:28:30.454Z,15.66
2018-04-15T20:30:58.014Z,15.70
2018-04-15T20:33:25.585Z,15.72
2018-04-15T20:35:53.316Z,15.78
2018-04-15T20:38:20.863Z,15.71
2018-04-15T20:40:48.451Z,15.70
2018-04-15T20:43:16.049Z,15.68
2018-04-15T20:45:43.616Z,15.70
2018-04-15T20:48:11.231Z,15.67
2018-04-15T20:50:38.811Z,15.64
2018-04-15T20:53:06.414Z,15.65
2018-04-15T20:55:33.993Z,15.66
2018-04-15T20:58:01.585Z,15.61
2018-04-15T21:00:29.153Z,15.56
2018-04-15T21:02:56.706Z,15.62
2018-04-15T21:05:24.336Z,15.72
2018-04-15T21:07:51.964Z,15.74
2018-04-15T21:10:19.540Z,15.78
2018-04-15T21:12:47.414Z,15.75
2018-04-15T21:15:14.977Z,15.72
2018-04-15T21:17:42.520Z,15.66
2018-04-15T21:20:11.635Z,15.61
2018-04-15T21:22:39.210Z,15.52
2018-04-15T21:25:07.679Z,15.43
2018-04-15T21:27:35.413Z,15.36
2018-04-15T21:30:02.965Z,15.29
2018-04-15T21:32:30.555Z,15.27
2018-04-15T21:34:58.289Z,15.26
2018-04-15T21:37:25.889Z,15.24
2018-04-15T21:39:53.470Z,15.17
2018-04-15T21:42:21.077Z,15.14
2018-04-15T21:44:48.630Z,15.13
2018-04-15T21:47:16.183Z,15.06
2018-04-15T21:49:43.776Z,15.05
2018-04-15T21:52:11.331Z,14.98
2018-04-15T21:54:38.877Z,14.93
2018-04-15T21:57:06.638Z,14.92
2018-04-15T21:59:34.197Z,14.86
2018-04-15T22:02:01.762Z,14.79
2018-04-15T22:04:29.389Z,14.79
2018-04-15T22:06:56.956Z,14.80
2018-04-15T22:09:24.503Z,14.72
2018-04-15T22:12:03.714Z,14.68
2018-04-15T22:14:31.266Z,14.70
2018-04-15T22:16:58.820Z,14.68
2018-04-15T22:19:26.501Z,14.58
2018-04-15T22:21:54.068Z,14.56
2018-04-15T22:24:21.649Z,14.60
2018-04-15T22:26:49.857Z,14.61
2018-04-15T22:29:17.440Z,14.58
2018-04-15T22:31:45.023Z,14.54
2018-04-15T22:34:12.578Z,14.47
2018-04-15T22:36:40.125Z,14.51
2018-04-15T22:39:07.712Z,14.53
2018-04-15T22:41:35.278Z,14.51
2018-04-15T22:44:02.824Z,14.50
2018-04-15T22:46:30.544Z,14.43
2018-04-15T22:48:58.113Z,14.36
2018-04-15T22:51:25.695Z,14.39
2018-04-15T22:53:53.424Z,14.33
2018-04-15T22:56:21.001Z,14.33
2018-04-15T22:58:48.548Z,14.34
2018-04-15T23:01:16.188Z,14.29
2018-04-15T23:03:43.748Z,14.29
2018-04-15T23:06:11.320Z,14.27
2018-04-15T23:08:38.916Z,14.23
2018-04-15T23:11:06.504Z,14.17
2018-04-15T23:13:34.081Z,14.11
2018-04-15T23:16:01.676Z,14.06
2018-04-15T23:18:29.234Z,14.12
2018-04-15T23:20:56.784Z,14.11
2018-04-15T23:23:24.348Z,14.05
2018-04-15T23:25:51.897Z,13.97
2018-04-15T23:28:19.454Z,13.90
2018-04-15T23:30:47.058Z,13.86
2018-04-15T23:33:14.623Z,13.89
2018-04-15T23:35:42.180Z,13.87
2018-04-15T23:38:09.772Z,13.84
2018-04-15T23:40:37.356Z,13.85
2018-04-15T23:43:04.904Z,13.82
2018-04-15T23:45:32.628Z,13.81
2018-04-15T23:48:00.182Z,13.78
2018-04-15T23:50:27.725Z,13.74
2018-04-15T23:52:55.470Z,13.67
2018-04-15T23:55:23.017Z,13.73
2018-04-15T23:57:50.583Z,13.64
